sensor_id;sensor_type;location;lat;lon;timestamp;P1;durP1;ratioP1;P2;durP2;ratioP2
65053;SDS011;51639;47.828;35.038;2024-02-23T00:11:41;18.27;;;7.80;;
65053;SDS011;51639;47.828;35.038;2024-02-23T00:41:49;13.53;;;6.33;;
65053;SDS011;51639;47.828;35.038;2024-02-23T00:56:54;16.97;;;6.07;;
65053;SDS011;51639;47.828;35.038;2024-02-23T01:11:58;13.53;;;6.90;;
65053;SDS011;51639;47.828;35.038;2024-02-23T01:27:00;6.77;;;3.33;;
65053;SDS011;51639;47.828;35.038;2024-02-23T01:42:02;17.57;;;6.33;;
65053;SDS011;51639;47.828;35.038;2024-02-23T01:57:05;12.07;;;5.97;;
65053;SDS011;51639;47.828;35.038;2024-02-23T02:12:28;11.37;;;6.77;;
65053;SDS011;51639;47.828;35.038;2024-02-23T02:27:30;14.00;;;6.47;;
65053;SDS011;51639;47.828;35.038;2024-02-23T02:42:33;14.77;;;6.67;;
65053;SDS011;51639;47.828;35.038;2024-02-23T02:57:35;13.87;;;6.47;;
65053;SDS011;51639;47.828;35.038;2024-02-23T03:12:37;11.83;;;5.10;;
65053;SDS011;51639;47.828;35.038;2024-02-23T03:27:39;15.80;;;7.03;;
65053;SDS011;51639;47.828;35.038;2024-02-23T03:42:41;15.63;;;6.97;;
65053;SDS011;51639;47.828;35.038;2024-02-23T03:57:43;7.67;;;4.70;;
65053;SDS011;51639;47.828;35.038;2024-02-23T04:12:48;13.70;;;6.50;;
65053;SDS011;51639;47.828;35.038;2024-02-23T04:27:50;11.47;;;5.47;;
65053;SDS011;51639;47.828;35.038;2024-02-23T04:42:52;27.20;;;8.97;;
65053;SDS011;51639;47.828;35.038;2024-02-23T04:57:57;15.77;;;7.23;;
65053;SDS011;51639;47.828;35.038;2024-02-23T05:12:59;17.07;;;7.33;;
65053;SDS011;51639;47.828;35.038;2024-02-23T05:28:01;21.63;;;7.30;;
65053;SDS011;51639;47.828;35.038;2024-02-23T05:43:03;15.30;;;7.10;;
65053;SDS011;51639;47.828;35.038;2024-02-23T05:58:05;18.27;;;8.30;;
65053;SDS011;51639;47.828;35.038;2024-02-23T06:13:07;18.13;;;7.90;;
65053;SDS011;51639;47.828;35.038;2024-02-23T06:28:09;14.57;;;7.80;;
65053;SDS011;51639;47.828;35.038;2024-02-23T06:43:12;22.20;;;7.40;;
65053;SDS011;51639;47.828;35.038;2024-02-23T06:58:14;19.77;;;7.33;;
65053;SDS011;51639;47.828;35.038;2024-02-23T07:13:18;15.87;;;6.90;;
65053;SDS011;51639;47.828;35.038;2024-02-23T07:28:21;18.67;;;7.33;;
65053;SDS011;51639;47.828;35.038;2024-02-23T07:43:24;18.03;;;8.67;;
65053;SDS011;51639;47.828;35.038;2024-02-23T07:58:27;18.63;;;7.67;;
65053;SDS011;51639;47.828;35.038;2024-02-23T08:13:30;17.13;;;7.73;;
65053;SDS011;51639;47.828;35.038;2024-02-23T08:28:32;22.53;;;9.50;;
65053;SDS011;51639;47.828;35.038;2024-02-23T08:43:34;38.77;;;10.10;;
65053;SDS011;51639;47.828;35.038;2024-02-23T08:58:36;22.17;;;7.50;;
65053;SDS011;51639;47.828;35.038;2024-02-23T09:13:38;21.77;;;8.43;;
65053;SDS011;51639;47.828;35.038;2024-02-23T09:28:43;28.37;;;10.27;;
65053;SDS011;51639;47.828;35.038;2024-02-23T09:43:47;23.47;;;8.33;;
65053;SDS011;51639;47.828;35.038;2024-02-23T09:58:50;21.00;;;8.77;;
65053;SDS011;51639;47.828;35.038;2024-02-23T10:13:55;28.80;;;8.67;;
65053;SDS011;51639;47.828;35.038;2024-02-23T10:28:57;20.37;;;9.47;;
65053;SDS011;51639;47.828;35.038;2024-02-23T10:44:00;16.27;;;7.40;;
65053;SDS011;51639;47.828;35.038;2024-02-23T10:59:05;21.67;;;7.33;;
65053;SDS011;51639;47.828;35.038;2024-02-23T11:14:09;17.50;;;6.93;;
65053;SDS011;51639;47.828;35.038;2024-02-23T11:29:12;13.70;;;6.40;;
65053;SDS011;51639;47.828;35.038;2024-02-23T11:44:17;18.10;;;6.23;;
65053;SDS011;51639;47.828;35.038;2024-02-23T11:59:20;14.80;;;5.50;;
65053;SDS011;51639;47.828;35.038;2024-02-23T12:14:22;15.70;;;4.90;;
65053;SDS011;51639;47.828;35.038;2024-02-23T12:29:25;9.70;;;4.47;;
65053;SDS011;51639;47.828;35.038;2024-02-23T12:44:28;10.53;;;4.20;;
65053;SDS011;51639;47.828;35.038;2024-02-23T12:59:36;10.20;;;4.50;;
65053;SDS011;51639;47.828;35.038;2024-02-23T13:14:39;12.50;;;4.50;;
65053;SDS011;51639;47.828;35.038;2024-02-23T13:29:41;11.20;;;4.80;;
65053;SDS011;51639;47.828;35.038;2024-02-23T13:44:45;14.40;;;4.13;;
65053;SDS011;51639;47.828;35.038;2024-02-23T13:59:48;9.37;;;5.17;;
65053;SDS011;51639;47.828;35.038;2024-02-23T14:14:50;10.33;;;4.60;;
65053;SDS011;51639;47.828;35.038;2024-02-23T14:29:53;13.63;;;5.27;;
65053;SDS011;51639;47.828;35.038;2024-02-23T14:44:55;9.40;;;4.50;;
65053;SDS011;51639;47.828;35.038;2024-02-23T14:59:57;13.77;;;4.60;;
65053;SDS011;51639;47.828;35.038;2024-02-23T15:14:59;9.97;;;4.67;;
65053;SDS011;51639;47.828;35.038;2024-02-23T15:30:04;16.77;;;6.53;;
65053;SDS011;51639;47.828;35.038;2024-02-23T15:45:09;14.13;;;6.07;;
65053;SDS011;51639;47.828;35.038;2024-02-23T16:00:15;14.10;;;6.03;;
65053;SDS011;51639;47.828;35.038;2024-02-23T16:15:17;13.30;;;6.37;;
65053;SDS011;51639;47.828;35.038;2024-02-23T16:30:20;14.57;;;5.70;;
65053;SDS011;51639;47.828;35.038;2024-02-23T16:45:22;15.23;;;5.67;;
65053;SDS011;51639;47.828;35.038;2024-02-23T17:00:28;15.15;;;7.00;;
65053;SDS011;51639;47.828;35.038;2024-02-23T17:15:30;11.47;;;6.47;;
65053;SDS011;51639;47.828;35.038;2024-02-23T17:30:35;16.07;;;6.87;;
65053;SDS011;51639;47.828;35.038;2024-02-23T17:45:37;19.23;;;7.80;;
65053;SDS011;51639;47.828;35.038;2024-02-23T18:00:39;17.60;;;6.80;;
65053;SDS011;51639;47.828;35.038;2024-02-23T18:15:42;18.23;;;7.57;;
65053;SDS011;51639;47.828;35.038;2024-02-23T18:30:46;17.00;;;6.80;;
65053;SDS011;51639;47.828;35.038;2024-02-23T18:45:48;16.63;;;6.40;;
65053;SDS011;51639;47.828;35.038;2024-02-23T19:00:50;13.20;;;6.10;;
65053;SDS011;51639;47.828;35.038;2024-02-23T19:15:58;11.40;;;6.20;;
65053;SDS011;51639;47.828;35.038;2024-02-23T19:31:00;15.00;;;6.67;;
65053;SDS011;51639;47.828;35.038;2024-02-23T19:46:02;16.37;;;8.27;;
65053;SDS011;51639;47.828;35.038;2024-02-23T20:01:17;18.23;;;7.90;;
65053;SDS011;51639;47.828;35.038;2024-02-23T20:16:19;16.63;;;7.27;;
65053;SDS011;51639;47.828;35.038;2024-02-23T20:31:21;19.17;;;8.33;;
65053;SDS011;51639;47.828;35.038;2024-02-23T20:46:23;16.53;;;6.07;;
65053;SDS011;51639;47.828;35.038;2024-02-23T21:01:27;15.80;;;6.43;;
65053;SDS011;51639;47.828;35.038;2024-02-23T21:16:29;21.90;;;8.07;;
65053;SDS011;51639;47.828;35.038;2024-02-23T21:31:31;18.77;;;7.40;;
65053;SDS011;51639;47.828;35.038;2024-02-23T21:46:34;21.17;;;7.87;;
65053;SDS011;51639;47.828;35.038;2024-02-23T22:01:39;20.23;;;8.73;;
65053;SDS011;51639;47.828;35.038;2024-02-23T22:16:41;18.90;;;8.57;;
65053;SDS011;51639;47.828;35.038;2024-02-23T22:47:28;17.57;;;7.23;;
65053;SDS011;51639;47.828;35.038;2024-02-23T23:02:30;19.63;;;7.50;;
65053;SDS011;51639;47.828;35.038;2024-02-23T23:17:34;20.90;;;8.03;;
65053;SDS011;51639;47.828;35.038;2024-02-23T23:32:36;17.80;;;8.07;;
65053;SDS011;51639;47.828;35.038;2024-02-23T23:47:41;17.00;;;8.40;;
